createdAt,value
2018-08-03T00:00:07.324Z,100912.09
2018-08-03T00:02:36.150Z,100927.33
2018-08-03T00:05:04.961Z,100897.72
2018-08-03T00:07:33.799Z,100902.83
2018-08-03T00:10:02.663Z,100899.88
2018-08-03T00:12:31.431Z,100916.40
2018-08-03T00:15:00.377Z,100907.97
2018-08-03T00:17:29.177Z,100900.02
2018-08-03T00:19:57.989Z,100903.51
2018-08-03T00:22:26.844Z,100889.94
2018-08-03T00:24:55.662Z,100920.37
2018-08-03T00:27:24.531Z,100911.45
2018-08-03T00:29:53.345Z,100906.80
2018-08-03T00:32:22.250Z,100910.12
2018-08-03T00:34:51.125Z,100910.45
2018-08-03T00:37:19.991Z,100905.48
2018-08-03T00:39:48.807Z,100898.37
2018-08-03T00:42:17.622Z,100897.88
2018-08-03T00:44:46.661Z,100900.65
2018-08-03T00:47:15.480Z,100896.03
2018-08-03T00:49:44.280Z,100891.09
2018-08-03T00:52:13.159Z,100903.48
2018-08-03T00:54:41.957Z,100896.53
2018-08-03T00:57:10.761Z,100879.00
2018-08-03T00:59:39.637Z,100891.73
2018-08-03T01:02:08.484Z,100887.61
2018-08-03T01:04:37.465Z,100886.93
2018-08-03T01:07:06.321Z,100871.89
2018-08-03T01:09:35.164Z,100875.70
2018-08-03T01:12:04.386Z,100869.09
2018-08-03T01:14:33.184Z,100874.23
2018-08-03T01:17:02.106Z,100876.88
2018-08-03T01:19:30.980Z,100871.06
2018-08-03T01:21:59.758Z,100867.77
2018-08-03T01:24:28.651Z,100863.13
2018-08-03T01:26:57.495Z,100859.68
2018-08-03T01:29:26.489Z,100853.22
2018-08-03T01:31:55.366Z,100840.34
2018-08-03T01:34:24.233Z,100866.78
2018-08-03T01:36:53.039Z,100853.56
2018-08-03T01:39:21.915Z,100848.91
2018-08-03T01:41:50.734Z,100841.16
2018-08-03T01:44:19.650Z,100845.77
2018-08-03T01:46:48.468Z,100848.77
2018-08-03T01:49:17.315Z,100853.86
2018-08-03T01:51:46.130Z,100845.62
2018-08-03T01:54:14.943Z,100845.62
2018-08-03T01:56:43.792Z,100848.91
2018-08-03T01:59:12.685Z,100848.75
2018-08-03T02:01:41.463Z,100844.59
2018-08-03T02:04:10.380Z,100852.52
2018-08-03T02:06:39.275Z,100847.56
2018-08-03T02:09:09.340Z,100849.88
2018-08-03T02:11:38.646Z,100843.91
2018-08-03T02:14:07.504Z,100851.01
2018-08-03T02:16:36.426Z,100857.12
2018-08-03T02:19:05.301Z,100858.61
2018-08-03T02:21:34.080Z,100855.91
2018-08-03T02:24:02.903Z,100857.62
2018-08-03T02:26:31.763Z,100857.05
2018-08-03T02:29:00.561Z,100854.38
2018-08-03T02:31:29.351Z,100852.44
2018-08-03T02:33:58.201Z,100857.89
2018-08-03T02:36:27.057Z,100850.67
2018-08-03T02:38:55.897Z,100851.50
2018-08-03T02:41:24.769Z,100855.33
2018-08-03T02:43:53.663Z,100858.49
2018-08-03T02:46:22.539Z,100862.95
2018-08-03T02:48:51.352Z,100855.00
2018-08-03T02:51:20.160Z,100861.45
2018-08-03T02:53:49.003Z,100850.32
2018-08-03T02:56:17.779Z,100851.16
2018-08-03T02:58:46.593Z,100853.43
2018-08-03T03:01:15.506Z,100848.36
2018-08-03T03:03:44.369Z,100853.84
2018-08-03T03:06:13.189Z,100848.56
2018-08-03T03:08:42.070Z,100854.14
2018-08-03T03:11:10.934Z,100843.10
2018-08-03T03:13:39.827Z,100849.25
2018-08-03T03:16:08.644Z,100849.25
2018-08-03T03:18:38.727Z,100851.73
2018-08-03T03:21:07.759Z,100858.16
2018-08-03T03:23:36.641Z,100851.90
2018-08-03T03:26:06.907Z,100850.57
2018-08-03T03:28:35.697Z,100857.19
2018-08-03T03:31:04.594Z,100865.77
2018-08-03T03:33:33.568Z,100866.63
2018-08-03T03:36:02.342Z,100863.97
2018-08-03T03:38:31.172Z,100870.77
2018-08-03T03:41:00.073Z,100874.91
2018-08-03T03:43:28.926Z,100871.27
2018-08-03T03:45:57.740Z,100874.75
2018-08-03T03:48:26.604Z,100877.86
2018-08-03T03:50:55.455Z,100884.47
2018-08-03T03:53:24.304Z,100886.31
2018-08-03T03:55:53.144Z,100886.09
2018-08-03T03:58:21.972Z,100889.92
2018-08-03T04:00:50.840Z,100884.98
2018-08-03T04:03:19.783Z,100880.66
2018-08-03T04:05:48.577Z,100882.66
2018-08-03T04:08:17.504Z,100887.92
2018-08-03T04:10:46.430Z,100884.23
2018-08-03T04:13:15.264Z,100888.67
2018-08-03T04:15:44.118Z,100880.69
2018-08-03T04:18:20.302Z,100878.73
2018-08-03T04:20:49.777Z,100885.46
2018-08-03T04:23:19.038Z,100888.77
2018-08-03T04:25:47.875Z,100888.89
2018-08-03T04:28:16.715Z,100897.77
2018-08-03T04:30:46.786Z,100892.62
2018-08-03T04:33:15.589Z,100897.83
2018-08-03T04:35:44.392Z,100899.72
2018-08-03T04:38:13.252Z,100895.46
2018-08-03T04:40:42.040Z,100902.42
2018-08-03T04:43:12.273Z,100909.10
2018-08-03T04:45:42.333Z,100909.73
2018-08-03T04:48:11.240Z,100911.72
2018-08-03T04:50:40.114Z,100916.77
2018-08-03T04:53:08.961Z,100913.83
2018-08-03T04:55:37.762Z,100918.73
2018-08-03T04:58:06.612Z,100926.53
2018-08-03T05:00:35.492Z,100913.50
2018-08-03T05:03:04.356Z,100930.99
2018-08-03T05:05:33.240Z,100931.27
2018-08-03T05:08:02.123Z,100932.44
2018-08-03T05:10:30.927Z,100941.78
2018-08-03T05:12:59.756Z,100937.83
2018-08-03T05:15:28.581Z,100942.78
2018-08-03T05:17:57.361Z,100940.78
2018-08-03T05:20:26.251Z,100941.36
2018-08-03T05:22:55.199Z,100941.08
2018-08-03T05:25:24.117Z,100939.20
2018-08-03T05:27:52.955Z,100947.62
2018-08-03T05:30:21.903Z,100942.27
2018-08-03T05:32:50.799Z,100943.87
2018-08-03T05:35:19.710Z,100938.98
2018-08-03T05:37:48.522Z,100944.80
2018-08-03T05:40:17.488Z,100937.08
2018-08-03T05:42:46.326Z,100936.81
2018-08-03T05:45:15.325Z,100941.97
2018-08-03T05:47:44.201Z,100929.39
2018-08-03T05:50:13.060Z,100943.13
2018-08-03T05:52:41.835Z,100940.09
2018-08-03T05:55:10.741Z,100945.39
2018-08-03T05:57:39.586Z,100938.38
2018-08-03T06:00:08.510Z,100945.73
2018-08-03T06:02:37.371Z,100940.42
2018-08-03T06:05:07.267Z,100943.77
2018-08-03T06:07:36.712Z,100945.67
2018-08-03T06:10:06.916Z,100947.58
2018-08-03T06:12:35.664Z,100944.10
2018-08-03T06:15:05.473Z,100945.24
2018-08-03T06:17:34.319Z,100936.80
2018-08-03T06:20:03.208Z,100940.11
2018-08-03T06:22:32.072Z,100939.54
2018-08-03T06:25:02.423Z,100929.13
2018-08-03T06:27:31.289Z,100934.54
2018-08-03T06:30:00.130Z,100934.81
2018-08-03T06:32:30.238Z,100935.63
2018-08-03T06:34:59.112Z,100938.27
2018-08-03T06:37:46.515Z,100932.55
2018-08-03T06:40:18.810Z,100890.44
2018-08-03T06:42:52.285Z,100941.84
2018-08-03T06:45:23.244Z,100940.48
2018-08-03T06:48:00.030Z,100938.05
2018-08-03T06:50:33.806Z,100939.80
2018-08-03T06:53:15.760Z,100944.62
2018-08-03T06:55:49.689Z,100950.03
2018-08-03T06:58:29.312Z,100951.77
2018-08-03T07:01:02.244Z,100944.64
2018-08-03T07:03:36.994Z,100919.46
2018-08-03T07:06:11.258Z,100950.45
2018-08-03T07:08:44.522Z,100950.16
2018-08-03T07:11:17.866Z,100933.95
2018-08-03T07:13:51.704Z,100953.09
2018-08-03T07:16:25.482Z,100953.20
2018-08-03T07:19:00.993Z,100952.08
2018-08-03T07:21:35.617Z,100953.64
2018-08-03T07:24:11.241Z,100955.50
2018-08-03T07:26:43.138Z,100951.70
2018-08-03T07:29:16.908Z,100945.72
2018-08-03T07:31:53.239Z,100949.20
2018-08-03T07:34:28.618Z,100952.84
2018-08-03T07:37:01.974Z,100940.30
2018-08-03T07:39:34.106Z,100937.53
2018-08-03T07:42:10.369Z,100952.91
2018-08-03T07:47:19.686Z,100944.73
2018-08-03T07:58:51.889Z,100941.91
2018-08-03T08:01:24.876Z,100943.12
2018-08-03T08:04:00.752Z,100941.12
2018-08-03T08:06:32.675Z,100922.82
2018-08-03T08:09:06.779Z,100928.33
2018-08-03T08:11:37.930Z,100921.75
2018-08-03T08:14:10.460Z,100928.41
2018-08-03T08:16:46.540Z,100923.55
2018-08-03T08:19:18.016Z,100923.31
2018-08-03T08:21:48.655Z,100928.44
2018-08-03T08:24:25.430Z,100927.34
2018-08-03T08:26:59.131Z,100931.99
2018-08-03T08:29:37.060Z,100926.52
2018-08-03T08:32:12.910Z,100925.42
2018-08-03T08:34:49.815Z,100922.40
2018-08-03T08:37:24.677Z,100922.09
2018-08-03T08:39:57.147Z,100923.20
2018-08-03T08:42:29.314Z,100926.59
2018-08-03T08:45:00.890Z,100927.30
2018-08-03T08:47:35.921Z,100918.80
2018-08-03T08:50:10.119Z,100923.29
2018-08-03T08:52:48.182Z,100909.25
2018-08-03T08:55:20.893Z,100921.52
2018-08-03T08:57:52.753Z,100916.48
2018-08-03T09:00:32.492Z,100933.45
2018-08-03T09:03:06.303Z,100907.29
2018-08-03T09:05:40.841Z,100914.24
2018-08-03T09:08:12.459Z,100908.19
2018-08-03T09:10:45.802Z,100893.64
2018-08-03T09:13:19.482Z,100895.33
2018-08-03T09:15:53.634Z,100902.27
2018-08-03T09:18:26.703Z,100919.27
2018-08-03T09:21:00.488Z,100905.98
2018-08-03T09:23:31.105Z,100909.60
2018-08-03T09:26:04.034Z,100898.34
2018-08-03T09:28:36.567Z,100898.27
2018-08-03T09:31:08.626Z,100903.42
2018-08-03T09:33:43.161Z,100883.28
2018-08-03T09:36:17.113Z,100885.14
2018-08-03T09:38:48.039Z,100861.47
2018-08-03T09:41:20.097Z,100887.89
2018-08-03T09:43:54.913Z,100891.63
2018-08-03T09:46:34.111Z,100891.17
2018-08-03T09:49:08.392Z,100907.55
2018-08-03T09:51:41.202Z,100891.98
2018-08-03T09:54:14.472Z,100909.16
2018-08-03T09:56:49.931Z,100900.22
2018-08-03T09:59:25.169Z,100898.52
2018-08-03T10:01:57.619Z,100886.91
2018-08-03T10:04:27.375Z,100908.84
2018-08-03T10:06:58.400Z,100891.77
2018-08-03T10:09:32.279Z,100894.94
2018-08-03T10:12:08.621Z,100902.34
2018-08-03T10:14:41.950Z,100895.91
2018-08-03T10:17:23.469Z,100880.66
2018-08-03T10:19:58.347Z,100909.80
2018-08-03T10:22:30.525Z,100883.34
2018-08-03T10:25:02.479Z,100902.14
2018-08-03T10:27:37.667Z,100871.55
2018-08-03T10:30:08.555Z,100876.96
2018-08-03T10:32:43.484Z,100894.49
2018-08-03T10:35:16.135Z,100896.55
2018-08-03T10:37:47.608Z,100876.70
2018-08-03T10:40:20.051Z,100887.42
2018-08-03T10:42:56.977Z,100896.66
2018-08-03T10:45:36.245Z,100840.41
2018-08-03T10:48:20.500Z,100886.84
2018-08-03T10:50:54.671Z,100884.52
2018-08-03T10:53:25.638Z,100879.05
2018-08-03T10:56:00.289Z,100872.86
2018-08-03T10:58:34.834Z,100867.33
2018-08-03T11:01:08.651Z,100862.29
2018-08-03T11:03:42.915Z,100889.11
2018-08-03T11:06:20.900Z,100869.96
2018-08-03T11:08:53.630Z,100873.57
2018-08-03T11:11:31.158Z,100827.18
2018-08-03T11:14:07.296Z,100851.34
2018-08-03T11:16:42.012Z,100847.19
2018-08-03T11:19:13.654Z,100862.67
2018-08-03T11:21:52.702Z,100859.27
2018-08-03T11:24:29.614Z,100842.19
2018-08-03T11:27:03.367Z,100865.14
2018-08-03T11:29:35.989Z,100847.84
2018-08-03T11:32:14.710Z,100857.15
2018-08-03T11:34:47.119Z,100854.34
2018-08-03T11:37:22.166Z,100852.92
2018-08-03T11:39:57.588Z,100860.58
2018-08-03T11:45:21.266Z,100865.38
2018-08-03T11:47:54.271Z,100869.48
2018-08-03T11:53:12.647Z,100861.92
2018-08-03T11:55:47.341Z,100843.33
2018-08-03T11:58:17.546Z,100864.46
2018-08-03T12:00:49.583Z,100892.44
2018-08-03T12:03:20.654Z,100872.64
2018-08-03T12:05:58.354Z,100874.35
2018-08-03T12:08:35.490Z,100876.28
2018-08-03T12:11:09.016Z,100869.44
2018-08-03T12:13:41.134Z,100852.25
2018-08-03T12:16:12.360Z,100865.88
2018-08-03T12:18:43.743Z,100873.10
2018-08-03T12:21:15.630Z,100874.23
2018-08-03T12:23:47.247Z,100873.31
2018-08-03T12:26:19.697Z,100883.50
2018-08-03T12:28:53.534Z,100873.85
2018-08-03T12:31:23.966Z,100867.92
2018-08-03T12:40:45.997Z,100892.85
2018-08-03T12:43:26.044Z,100891.61
2018-08-03T12:45:58.507Z,100901.48
2018-08-03T12:48:34.892Z,100878.24
2018-08-03T12:51:12.234Z,100880.22
2018-08-03T12:53:46.725Z,100832.25
2018-08-03T12:56:19.793Z,100877.34
2018-08-03T12:58:54.153Z,100863.00
2018-08-03T13:01:28.138Z,100881.42
2018-08-03T13:04:06.846Z,100867.67
2018-08-03T13:06:40.942Z,100865.20
2018-08-03T13:09:12.900Z,100877.61
2018-08-03T13:11:46.808Z,100884.77
2018-08-03T13:14:25.168Z,100911.83
2018-08-03T13:16:59.428Z,100901.41
2018-08-03T13:19:33.681Z,100912.73
2018-08-03T13:22:06.463Z,100913.27
2018-08-03T13:24:44.680Z,100914.05
2018-08-03T13:27:15.735Z,100920.31
2018-08-03T13:29:49.345Z,100914.48
2018-08-03T13:32:19.728Z,100917.38
2018-08-03T13:34:55.121Z,100832.33
2018-08-03T13:37:26.551Z,100907.33
2018-08-03T13:39:59.325Z,100918.04
2018-08-03T13:42:32.805Z,100904.89
2018-08-03T13:45:09.478Z,100898.20
2018-08-03T13:47:40.963Z,100893.03
2018-08-03T13:50:13.404Z,100911.11
2018-08-03T13:52:49.249Z,100902.60
2018-08-03T13:55:22.746Z,100898.55
2018-08-03T13:57:53.948Z,100902.45
2018-08-03T14:00:26.725Z,100912.95
2018-08-03T14:03:01.688Z,100917.00
2018-08-03T14:05:35.045Z,100906.45
2018-08-03T14:08:07.095Z,100901.54
2018-08-03T14:10:41.590Z,100873.33
2018-08-03T14:13:16.888Z,100902.97
2018-08-03T14:15:55.570Z,100898.92
2018-08-03T14:18:28.537Z,100901.74
2018-08-03T14:21:01.817Z,100896.85
2018-08-03T14:23:37.418Z,100906.98
2018-08-03T14:26:19.337Z,100910.34
2018-08-03T14:28:51.660Z,100889.11
2018-08-03T14:31:22.566Z,100910.80
2018-08-03T14:33:58.500Z,100898.82
2018-08-03T14:36:33.669Z,100899.14
2018-08-03T14:39:09.115Z,100895.41
2018-08-03T14:41:41.952Z,100903.95
2018-08-03T14:46:57.018Z,100898.39
2018-08-03T14:49:32.912Z,100901.16
2018-08-03T14:52:05.924Z,100905.67
2018-08-03T14:54:39.132Z,100909.53
2018-08-03T14:57:13.252Z,100906.73
2018-08-03T14:59:48.868Z,100895.06
2018-08-03T15:02:26.362Z,100897.87
2018-08-03T15:05:05.073Z,100885.70
2018-08-03T15:07:40.460Z,100878.27
2018-08-03T15:10:16.276Z,100884.55
2018-08-03T15:12:52.353Z,100884.66
2018-08-03T15:15:28.059Z,100884.48
2018-08-03T15:18:01.289Z,100883.75
2018-08-03T15:20:40.116Z,100886.83
2018-08-03T15:23:15.445Z,100798.64
2018-08-03T15:25:56.200Z,100866.55
2018-08-03T15:28:31.263Z,100874.20
2018-08-03T15:31:01.943Z,100885.72
2018-08-03T15:33:33.061Z,100882.53
2018-08-03T15:36:08.918Z,100886.98
2018-08-03T15:38:50.302Z,100888.30
2018-08-03T15:41:27.066Z,100886.95
2018-08-03T15:44:01.229Z,100888.05
2018-08-03T15:46:35.969Z,100881.44
2018-08-03T15:49:07.184Z,100866.31
2018-08-03T15:51:41.941Z,100888.27
2018-08-03T15:54:14.172Z,100884.00
2018-08-03T15:56:48.854Z,100882.03
2018-08-03T15:59:20.532Z,100868.19
2018-08-03T16:01:52.335Z,100877.42
2018-08-03T16:04:26.546Z,100861.33
2018-08-03T16:07:00.132Z,100889.73
2018-08-03T16:09:35.098Z,100885.93
2018-08-03T16:12:07.971Z,100779.11
2018-08-03T16:14:41.040Z,100889.00
2018-08-03T16:17:15.134Z,100890.47
2018-08-03T16:19:48.522Z,100881.52
2018-08-03T16:22:21.778Z,100892.05
2018-08-03T16:24:58.930Z,100887.22
2018-08-03T16:27:34.407Z,100881.30
2018-08-03T16:30:10.085Z,100877.81
2018-08-03T16:32:41.846Z,100878.73
2018-08-03T16:35:14.219Z,100878.05
2018-08-03T16:37:47.172Z,100879.77
2018-08-03T16:40:22.430Z,100878.10
2018-08-03T16:42:59.581Z,100885.70
2018-08-03T16:45:30.684Z,100877.20
2018-08-03T16:48:06.393Z,100887.98
2018-08-03T16:50:39.358Z,100881.52
2018-08-03T16:53:15.810Z,100880.98
2018-08-03T16:55:49.250Z,100884.19
2018-08-03T16:58:22.452Z,100887.52
2018-08-03T17:00:58.731Z,100827.41
2018-08-03T17:03:36.764Z,100886.59
2018-08-03T17:06:08.777Z,100891.37
2018-08-03T17:08:41.620Z,100892.27
2018-08-03T17:11:14.069Z,100895.02
2018-08-03T17:13:45.866Z,100843.27
2018-08-03T17:16:18.349Z,100903.59
2018-08-03T17:18:50.726Z,100902.91
2018-08-03T17:21:24.017Z,100900.96
2018-08-03T17:23:54.571Z,100901.59
2018-08-03T17:26:26.199Z,100902.35
2018-08-03T17:29:04.311Z,100900.23
2018-08-03T17:31:36.217Z,100896.05
2018-08-03T17:34:08.988Z,100899.22
2018-08-03T17:36:43.449Z,100900.23
2018-08-03T17:39:15.311Z,100890.30
2018-08-03T17:41:46.466Z,100893.11
2018-08-03T17:44:20.130Z,100896.75
2018-08-03T17:46:52.939Z,100899.14
2018-08-03T17:49:25.820Z,100905.64
2018-08-03T17:51:57.371Z,100904.30
2018-08-03T17:54:29.779Z,100903.38
2018-08-03T17:57:03.315Z,100905.13
2018-08-03T17:59:34.990Z,100903.68
2018-08-03T18:02:12.839Z,100911.98
2018-08-03T18:04:46.980Z,100918.56
2018-08-03T18:07:21.271Z,100925.53
2018-08-03T18:09:55.813Z,100922.92
2018-08-03T18:12:33.279Z,100919.41
2018-08-03T18:15:06.206Z,100922.56
2018-08-03T18:17:36.407Z,100922.72
2018-08-03T18:20:13.294Z,100921.39
2018-08-03T18:23:01.873Z,100926.94
2018-08-03T18:25:34.709Z,100930.55
2018-08-03T18:28:07.984Z,100934.09
2018-08-03T18:30:39.151Z,100936.79
2018-08-03T18:33:11.555Z,100934.09
2018-08-03T18:35:44.484Z,100938.25
2018-08-03T18:38:16.971Z,100938.28
2018-08-03T18:40:49.665Z,100935.09
2018-08-03T18:43:30.844Z,100941.89
2018-08-03T18:46:04.517Z,100883.99
2018-08-03T18:48:36.265Z,100933.84
2018-08-03T18:51:13.624Z,100939.65
2018-08-03T18:53:47.440Z,100940.77
2018-08-03T18:56:20.475Z,100943.92
2018-08-03T18:58:55.618Z,100942.27
2018-08-03T19:01:32.353Z,100940.77
2018-08-03T19:04:04.542Z,100937.28
2018-08-03T19:06:39.516Z,100934.00
2018-08-03T19:09:15.772Z,100939.94
2018-08-03T19:11:49.941Z,100940.61
2018-08-03T19:14:21.724Z,100936.22
2018-08-03T19:16:56.205Z,100938.20
2018-08-03T19:19:28.395Z,100943.34
2018-08-03T19:21:58.195Z,100934.96
2018-08-03T19:24:36.038Z,100944.16
2018-08-03T19:27:11.966Z,100942.80
2018-08-03T19:29:52.482Z,100945.25
2018-08-03T19:32:23.175Z,100946.95
2018-08-03T19:34:58.354Z,100887.34
2018-08-03T19:37:31.128Z,100948.71
2018-08-03T19:40:07.263Z,100946.69
2018-08-03T19:42:44.239Z,100943.73
2018-08-03T19:45:26.822Z,100943.27
2018-08-03T19:47:59.974Z,100948.02
2018-08-03T19:50:46.348Z,100947.84
2018-08-03T19:53:17.986Z,100944.12
2018-08-03T19:55:52.618Z,100945.61
2018-08-03T19:58:30.547Z,100953.11
2018-08-03T20:01:01.639Z,100952.58
2018-08-03T20:03:35.241Z,100950.89
2018-08-03T20:08:52.122Z,100951.36
2018-08-03T20:11:25.307Z,100957.73
2018-08-03T20:13:57.613Z,100953.45
2018-08-03T20:16:33.554Z,100952.13
2018-08-03T20:19:04.161Z,100961.41
2018-08-03T20:21:34.688Z,100958.13
2018-08-03T20:24:11.000Z,100959.02
2018-08-03T20:26:43.392Z,100948.41
2018-08-03T20:29:15.793Z,100946.29
2018-08-03T20:31:48.627Z,100955.91
2018-08-03T20:34:21.868Z,100947.76
2018-08-03T20:36:56.678Z,100951.22
2018-08-03T20:39:30.412Z,100951.87
2018-08-03T20:42:04.727Z,100958.20
2018-08-03T20:44:36.772Z,100950.45
2018-08-03T20:47:07.412Z,100950.94
2018-08-03T20:49:41.742Z,100954.24
2018-08-03T20:52:15.417Z,100951.23
2018-08-03T20:54:49.590Z,100953.11
2018-08-03T20:57:24.344Z,100954.26
2018-08-03T20:59:56.747Z,100951.64
2018-08-03T21:02:28.095Z,100947.07
2018-08-03T21:05:00.994Z,100953.39
2018-08-03T21:07:32.301Z,100949.10
2018-08-03T21:10:06.106Z,100958.03
2018-08-03T21:12:40.323Z,100951.75
2018-08-03T21:15:15.006Z,100957.54
2018-08-03T21:17:45.727Z,100954.74
2018-08-03T21:20:16.489Z,100947.43
2018-08-03T21:22:50.601Z,100953.89
2018-08-03T21:25:20.859Z,100948.45
2018-08-03T21:27:54.512Z,100949.73
2018-08-03T21:30:26.036Z,100950.31
2018-08-03T21:32:59.006Z,100949.03
2018-08-03T21:35:32.847Z,100946.58
2018-08-03T21:38:04.417Z,100942.73
2018-08-03T21:40:41.788Z,100945.89
2018-08-03T21:43:15.866Z,100944.05
2018-08-03T21:45:47.108Z,100940.41
2018-08-03T21:48:21.223Z,100945.72
2018-08-03T21:50:51.823Z,100941.07
2018-08-03T21:53:25.425Z,100938.47
2018-08-03T21:55:58.399Z,100947.62
2018-08-03T21:58:31.052Z,100826.44
2018-08-03T22:01:08.069Z,100947.95
2018-08-03T22:03:41.666Z,100943.16
2018-08-03T22:06:15.505Z,100939.19
2018-08-03T22:08:49.010Z,100937.51
2018-08-03T22:11:20.663Z,100933.70
2018-08-03T22:14:04.679Z,100933.19
2018-08-03T22:16:37.602Z,100925.20
2018-08-03T22:19:09.147Z,100923.73
2018-08-03T22:21:38.507Z,100923.88
2018-08-03T22:24:09.130Z,100925.54
2018-08-03T22:26:44.643Z,100917.75
2018-08-03T22:29:20.438Z,100920.94
2018-08-03T22:31:54.149Z,100921.61
2018-08-03T22:34:27.767Z,100922.44
2018-08-03T22:37:03.760Z,100930.89
2018-08-03T22:39:33.701Z,100925.95
2018-08-03T22:42:04.833Z,100931.40
2018-08-03T22:44:37.777Z,100921.27
2018-08-03T22:47:11.115Z,100926.25
2018-08-03T22:50:12.595Z,100920.46
2018-08-03T22:52:48.151Z,100920.19
2018-08-03T22:55:24.480Z,100919.52
2018-08-03T22:57:54.558Z,100920.20
2018-08-03T23:00:33.828Z,100918.05
2018-08-03T23:03:09.251Z,100914.58
2018-08-03T23:05:44.811Z,100918.39
2018-08-03T23:08:17.441Z,100912.42
2018-08-03T23:10:51.894Z,100906.80
2018-08-03T23:13:29.064Z,100910.77
2018-08-03T23:16:03.443Z,100910.47
2018-08-03T23:18:45.941Z,100909.45
2018-08-03T23:21:16.874Z,100907.14
2018-08-03T23:23:50.671Z,100906.66
2018-08-03T23:26:23.255Z,100905.82
2018-08-03T23:31:38.877Z,100900.67
2018-08-03T23:34:16.590Z,100901.81
2018-08-03T23:36:47.696Z,100900.34
2018-08-03T23:39:24.647Z,100908.95
2018-08-03T23:42:00.482Z,100905.17
2018-08-03T23:44:32.108Z,100901.20
2018-08-03T23:47:03.610Z,100903.33
2018-08-03T23:49:37.317Z,100902.31
2018-08-03T23:52:07.823Z,100902.50
2018-08-03T23:54:39.241Z,100900.50
2018-08-03T23:57:13.826Z,100902.68
2018-08-03T23:59:44.275Z,100784.48
